Terminal Aerodrome Forecast
Issued by NWS

Home | Current Version | Previous Version | Text Only | Print | Product List | Glossary On
Versions: 1 2 3 4 5 6 7 8 9 10 11 12
939
FTUS45 KTFX 261721
TAFBZN
TAF
KBZN 261721Z 2618/2724 VRB06KT P6SM FEW100
      TEMPO 2622/2701 VRB15G30KT TSRA BKN080CB
     FM270800 17009KT P6SM FEW070 SCT150
     FM271300 VRB05KT P6SM FEW110 SCT200 PROB30 2720/2724 VRB15G30KT
      -TSRA OVC060CB=

USA.gov is the U.S. government's official web portal to all federal, state and local government web resources and services.